Airfield :
LOGIN :

Register | Disclaimer

   EN    FR    IT 

 










Legend :    VFR   Marginal VFR   IFR   Intensive IFR   Very Intensive IFR
Visi :
Ceiling :
>= 8 km
>= 3000ft
5 to 8 km
1000 to 3000 ft
1500m to 5 km
500 to 1000 ft
800 to 1500m
200 to 500 ft
< 800m
< 200 ft
Symbols :   Thunderstorms  Fog  Heavy snow  Heavy precipitations  Wind > 20 kt
SIGMETs :     Misc.  Thunderstorms  Icing  Turbulence  Mountain Waves  Volcanic Ashes






- Airport Elevation : 266 ft
- IATA code : NCL


EGNT - Newcastle

CURRENT METAR :
  • 212250Z VRB02KT 9999 BKN024 05/04 Q1032

EXPIRED METARs :
  • 212220Z 16003KT 120V210 9999 BKN024 05/04 Q1032
  • 212120Z 15003KT 090V180 9999 BKN024 05/04 Q1032
  • 212050Z VRB02KT 9999 -RA SCT021 05/04 Q1032
  • 212020Z VRB01KT 9999 -RA BKN023 05/04 Q1032
  • 211950Z 11003KT 9999 -RA BKN025 05/03 Q1032
  • 211920Z 11003KT 9999 -RA SCT032 05/02 Q1032
  • 211850Z 09003KT 9999 SCT039 06/02 Q1032

TAF TAF EGNT
Valid from the 22 at 00:00 until the 23 at 00:00 UTC


212259Z 2200/2224 06005KT 9999 BKN024
TEMPO 2200/2212 4500 RADZ BR BKN008
PROB30
TEMPO 2200/2209 +RADZ BKN003
PROB30
TEMPO 2212/2224 6000 -RADZ BKN005
ATIS : +44 191 214 3400



MET'MAP, your aeronautical weather chart ! - Copyright ORBIFLY December 2007 - Disclaimer

ORBIFLY MET'MAP TEAM :

Programming & Development : Alexandra Zaïnal
Original concept : Baudouin d'Aumeries
Technical & hardware support : Manuel Goepfert
Assistance : Marc-Olivier Méhu




SOURCES & CREDITS :

   NOAA